createdAt,value
2023-01-21T00:00:38.128Z,99161.84
2023-01-21T00:03:08.196Z,99159.34
2023-01-21T00:05:38.042Z,99157.47
2023-01-21T00:08:07.809Z,99153.84
2023-01-21T00:10:37.322Z,99168.59
2023-01-21T00:13:07.026Z,99171.13
2023-01-21T00:15:38.139Z,99177.88
2023-01-21T00:18:08.110Z,99178.56
2023-01-21T00:20:37.695Z,99168.47
2023-01-21T00:23:07.707Z,99184.66
2023-01-21T00:25:37.221Z,99177.81
2023-01-21T00:28:06.997Z,99181.25
2023-01-21T00:30:37.868Z,99184.59
2023-01-21T00:33:07.433Z,99183.72
2023-01-21T00:35:37.272Z,99186.31
2023-01-21T00:38:06.602Z,99185.41
2023-01-21T00:40:36.716Z,99189.63
2023-01-21T00:43:06.239Z,99201.22
2023-01-21T00:45:35.641Z,99203.66
2023-01-21T00:48:05.450Z,99207.66
2023-01-21T00:50:35.104Z,99207.00
2023-01-21T00:53:04.661Z,99203.72
2023-01-21T00:55:34.054Z,99207.16
2023-01-21T00:58:03.849Z,99206.22
2023-01-21T01:00:33.875Z,99208.31
2023-01-21T01:03:03.621Z,99214.41
2023-01-21T01:05:34.721Z,99213.00
2023-01-21T01:08:05.376Z,99215.53
2023-01-21T01:10:40.217Z,99207.97
2023-01-21T01:13:10.396Z,99217.00
2023-01-21T01:15:41.341Z,99224.47
2023-01-21T01:18:11.805Z,99217.00
2023-01-21T01:20:48.800Z,99213.84
2023-01-21T01:23:19.184Z,99218.22
2023-01-21T01:26:09.328Z,99216.88
2023-01-21T01:28:39.915Z,99213.31
2023-01-21T01:31:13.910Z,99205.81
2023-01-21T01:33:45.236Z,99215.25
2023-01-21T01:36:21.132Z,99212.88
2023-01-21T01:38:51.961Z,99229.97
2023-01-21T01:41:30.244Z,99232.75
2023-01-21T01:44:27.421Z,99229.44
2023-01-21T01:47:01.616Z,99229.44
2023-01-21T01:49:31.948Z,99230.13
2023-01-21T01:52:06.543Z,99231.94
2023-01-21T01:54:44.126Z,99230.41
2023-01-21T01:57:17.660Z,99235.38
2023-01-21T01:59:48.984Z,99246.44
2023-01-21T02:02:21.932Z,99244.63
2023-01-21T02:04:58.721Z,99247.28
2023-01-21T02:07:34.571Z,99243.84
2023-01-21T02:10:05.071Z,99238.47
2023-01-21T02:12:38.203Z,99237.75
2023-01-21T02:15:09.476Z,99242.88
2023-01-21T02:17:58.798Z,99245.75
2023-01-21T02:21:13.016Z,99247.28
2023-01-21T02:24:10.876Z,99248.25
2023-01-21T02:26:59.834Z,99245.47
2023-01-21T02:29:56.940Z,99245.88
2023-01-21T02:33:11.519Z,99248.53
2023-01-21T02:35:54.022Z,99244.22
2023-01-21T02:38:31.015Z,99243.25
2023-01-21T02:41:09.027Z,99245.88
2023-01-21T02:44:06.095Z,99242.75
2023-01-21T02:47:02.662Z,99251.19
2023-01-21T02:50:29.508Z,99251.28
2023-01-21T02:53:05.495Z,99246.88
2023-01-21T02:55:38.885Z,99249.28
2023-01-21T02:58:16.476Z,99246.66
2023-01-21T03:01:07.612Z,99253.78
2023-01-21T03:03:50.476Z,99262.81
2023-01-21T03:06:31.387Z,99265.34
2023-01-21T03:09:22.712Z,99274.09
2023-01-21T03:12:07.435Z,99273.28
2023-01-21T03:15:10.897Z,99282.66
2023-01-21T03:17:56.091Z,99280.13
2023-01-21T03:20:35.497Z,99286.88
2023-01-21T03:23:12.013Z,99291.94
2023-01-21T03:25:43.631Z,99298.81
2023-01-21T03:28:19.132Z,99288.03
2023-01-21T03:30:57.806Z,99294.28
2023-01-21T03:33:31.687Z,99299.50
2023-01-21T03:36:07.894Z,99300.47
2023-01-21T03:38:46.200Z,99307.25
2023-01-21T03:41:22.800Z,99298.09
2023-01-21T03:43:54.166Z,99303.09
2023-01-21T03:46:45.835Z,99306.88
2023-01-21T03:49:47.355Z,99311.22
2023-01-21T03:52:20.284Z,99312.06
2023-01-21T03:54:51.265Z,99318.94
2023-01-21T03:57:21.487Z,99326.34
2023-01-21T03:59:51.781Z,99318.91
2023-01-21T04:02:22.329Z,99329.25
2023-01-21T04:04:54.048Z,99331.69
2023-01-21T04:07:23.677Z,99329.91
2023-01-21T04:09:53.279Z,99330.88
2023-01-21T04:12:23.008Z,99330.09
2023-01-21T04:14:52.506Z,99331.03
2023-01-21T04:17:22.052Z,99333.63
2023-01-21T04:19:52.245Z,99336.19
2023-01-21T04:22:21.785Z,99336.31
2023-01-21T04:24:51.253Z,99350.09
2023-01-21T04:27:20.883Z,99346.75
2023-01-21T04:29:50.336Z,99339.03
2023-01-21T04:32:20.022Z,99335.69
2023-01-21T04:34:49.529Z,99343.44
2023-01-21T04:37:19.268Z,99345.34
2023-01-21T04:39:48.809Z,99344.53
2023-01-21T04:42:18.285Z,99349.81
2023-01-21T04:44:48.611Z,99346.44
2023-01-21T04:47:18.419Z,99355.00
2023-01-21T04:49:49.871Z,99356.94
2023-01-21T04:52:19.833Z,99350.94
2023-01-21T04:54:49.150Z,99350.19
2023-01-21T04:57:18.758Z,99347.66
2023-01-21T04:59:48.487Z,99343.44
2023-01-21T05:02:18.177Z,99350.38
2023-01-21T05:04:47.900Z,99347.00
2023-01-21T05:07:18.290Z,99345.34
2023-01-21T05:09:49.352Z,99346.25
2023-01-21T05:12:18.835Z,99341.97
2023-01-21T05:14:48.415Z,99330.81
2023-01-21T05:17:17.867Z,99333.44
2023-01-21T05:19:47.667Z,99340.31
2023-01-21T05:22:17.251Z,99330.94
2023-01-21T05:24:49.823Z,99333.56
2023-01-21T05:27:21.182Z,99323.25
2023-01-21T05:29:50.859Z,99333.59
2023-01-21T05:32:21.300Z,99335.28
2023-01-21T05:34:50.983Z,99326.72
2023-01-21T05:37:20.748Z,99323.28
2023-01-21T05:39:50.328Z,99321.56
2023-01-21T05:42:19.808Z,99324.16
2023-01-21T05:44:49.413Z,99323.28
2023-01-21T05:47:19.171Z,99331.00
2023-01-21T05:49:48.940Z,99324.13
2023-01-21T05:52:18.545Z,99318.97
2023-01-21T05:55:01.057Z,99319.81
2023-01-21T05:57:32.148Z,99312.91
2023-01-21T06:00:01.812Z,99315.53
2023-01-21T06:02:34.056Z,99311.22
2023-01-21T06:05:03.692Z,99312.94
2023-01-21T06:07:33.102Z,99309.47
2023-01-21T06:10:02.700Z,99312.03
2023-01-21T06:12:32.007Z,99304.19
2023-01-21T06:15:01.775Z,99301.63
2023-01-21T06:17:31.193Z,99301.66
2023-01-21T06:20:00.710Z,99290.47
2023-01-21T06:22:30.295Z,99285.25
2023-01-21T06:25:00.075Z,99285.25
2023-01-21T06:27:30.164Z,99284.38
2023-01-21T06:29:59.636Z,99279.19
2023-01-21T06:32:29.021Z,99273.19
2023-01-21T06:34:58.869Z,99273.09
2023-01-21T06:37:29.011Z,99268.03
2023-01-21T06:39:58.913Z,99266.25
2023-01-21T06:42:30.761Z,99268.97
2023-01-21T06:45:00.489Z,99256.00
2023-01-21T06:47:29.884Z,99255.00
2023-01-21T06:49:59.494Z,99252.44
2023-01-21T06:52:29.107Z,99246.38
2023-01-21T06:54:58.670Z,99242.94
2023-01-21T06:57:27.979Z,99240.34
2023-01-21T06:59:57.688Z,99236.84
2023-01-21T07:02:27.224Z,99229.06
2023-01-21T07:04:59.001Z,99228.19
2023-01-21T07:07:29.333Z,99224.72
2023-01-21T07:09:59.119Z,99219.56
2023-01-21T07:12:28.386Z,99221.22
2023-01-21T07:14:57.928Z,99218.63
2023-01-21T07:17:27.432Z,99205.69
2023-01-21T07:19:57.049Z,99204.78
2023-01-21T07:22:27.077Z,99199.59
2023-01-21T07:24:56.590Z,99193.66
2023-01-21T07:27:26.089Z,99191.78
2023-01-21T07:29:55.794Z,99186.72
2023-01-21T07:32:25.068Z,99181.25
2023-01-21T07:34:54.987Z,99177.69
2023-01-21T07:37:27.159Z,99177.59
2023-01-21T07:39:57.555Z,99173.47
2023-01-21T07:42:27.208Z,99163.78
2023-01-21T07:44:58.153Z,99165.59
2023-01-21T07:47:27.805Z,99150.22
2023-01-21T07:49:57.678Z,99149.28
2023-01-21T07:52:27.147Z,99145.28
2023-01-21T07:54:56.776Z,99143.19
2023-01-21T07:57:26.458Z,99148.59
2023-01-21T07:59:56.101Z,99136.50
2023-01-21T08:02:26.651Z,99127.50
2023-01-21T08:04:56.402Z,99126.41
2023-01-21T08:07:25.766Z,99118.84
2023-01-21T08:09:55.544Z,99112.69
2023-01-21T08:12:27.170Z,99112.72
2023-01-21T08:14:57.166Z,99118.13
2023-01-21T08:17:26.827Z,99107.47
2023-01-21T08:19:56.320Z,99098.75
2023-01-21T08:22:27.103Z,99096.50
2023-01-21T08:24:56.825Z,99091.28
2023-01-21T08:27:26.200Z,99090.38
2023-01-21T08:29:55.855Z,99083.44
2023-01-21T08:32:25.987Z,99091.06
2023-01-21T08:34:55.410Z,99080.53
2023-01-21T08:37:24.756Z,99078.22
2023-01-21T08:39:54.521Z,99072.06
2023-01-21T08:42:23.961Z,99069.31
2023-01-21T08:44:55.285Z,99076.09
2023-01-21T08:47:24.881Z,99059.81
2023-01-21T08:49:54.343Z,99062.31
2023-01-21T08:52:24.166Z,99056.09
2023-01-21T08:54:53.839Z,99052.88
2023-01-21T08:57:23.375Z,99045.09
2023-01-21T08:59:53.071Z,99040.75
2023-01-21T09:02:22.716Z,99040.69
2023-01-21T09:04:52.363Z,99043.44
2023-01-21T09:07:22.093Z,99037.63
2023-01-21T09:09:51.564Z,99035.88
2023-01-21T09:12:21.137Z,99027.03
2023-01-21T09:14:50.768Z,99035.66
2023-01-21T09:17:20.314Z,99037.19
2023-01-21T09:19:50.440Z,99025.16
2023-01-21T09:22:20.207Z,99023.22
2023-01-21T09:24:49.601Z,99018.91
2023-01-21T09:27:19.286Z,99022.56
2023-01-21T09:29:48.627Z,99019.16
2023-01-21T09:32:18.005Z,99020.59
2023-01-21T09:34:47.685Z,99018.72
2023-01-21T09:37:17.064Z,99013.91
2023-01-21T09:39:49.283Z,99008.66
2023-01-21T09:42:23.386Z,99010.34
2023-01-21T09:44:55.989Z,99004.50
2023-01-21T09:47:34.932Z,98999.13
2023-01-21T09:50:09.917Z,99004.34
2023-01-21T09:52:44.144Z,98997.72
2023-01-21T09:55:25.642Z,98991.28
2023-01-21T09:58:35.432Z,98993.72
2023-01-21T10:01:20.683Z,98991.88
2023-01-21T10:03:55.369Z,98982.50
2023-01-21T10:07:15.408Z,98981.06
2023-01-21T10:10:05.685Z,98977.28
2023-01-21T10:12:55.683Z,98980.94
2023-01-21T10:15:51.661Z,98976.72
2023-01-21T10:18:30.710Z,98968.69
2023-01-21T10:21:19.795Z,98963.63
2023-01-21T10:24:02.502Z,98972.53
2023-01-21T10:26:35.614Z,98958.63
2023-01-21T10:29:06.432Z,98964.19
2023-01-21T10:31:44.275Z,98960.13
2023-01-21T10:34:16.367Z,98953.88
2023-01-21T10:36:52.666Z,98955.38
2023-01-21T10:39:28.490Z,98954.41
2023-01-21T10:42:06.722Z,98950.66
2023-01-21T10:44:48.509Z,98949.06
2023-01-21T10:47:44.244Z,98942.22
2023-01-21T10:50:19.285Z,98948.34
2023-01-21T10:53:15.232Z,98939.47
2023-01-21T10:56:02.039Z,98939.25
2023-01-21T10:58:35.453Z,98940.22
2023-01-21T11:01:09.835Z,98942.81
2023-01-21T11:03:43.999Z,98937.44
2023-01-21T11:06:16.799Z,98946.00
2023-01-21T11:08:47.276Z,98937.25
2023-01-21T11:11:27.753Z,98938.41
2023-01-21T11:13:58.284Z,98937.66
2023-01-21T11:16:44.385Z,98930.47
2023-01-21T11:19:17.135Z,98931.44
2023-01-21T11:22:07.248Z,98920.88
2023-01-21T11:24:52.481Z,98921.72
2023-01-21T11:27:40.620Z,98928.69
2023-01-21T11:30:55.217Z,98925.34
2023-01-21T11:33:28.583Z,98925.53
2023-01-21T11:35:59.454Z,98926.59
2023-01-21T11:38:31.859Z,98925.56
2023-01-21T11:41:08.848Z,98924.16
2023-01-21T11:43:47.652Z,98927.53
2023-01-21T11:46:36.815Z,98927.28
2023-01-21T11:49:09.391Z,98935.34
2023-01-21T11:51:42.349Z,98932.56
2023-01-21T11:54:26.011Z,98926.78
2023-01-21T11:57:01.842Z,98926.09
2023-01-21T11:59:45.423Z,98927.78
2023-01-21T12:02:41.428Z,98931.47
2023-01-21T12:05:25.141Z,98933.25
2023-01-21T12:07:54.763Z,98928.88
2023-01-21T12:10:35.052Z,98928.91
2023-01-21T12:13:37.753Z,98923.88
2023-01-21T12:16:25.446Z,98923.06
2023-01-21T12:19:22.629Z,98928.34
2023-01-21T12:22:30.941Z,98928.22
2023-01-21T12:25:39.372Z,98922.94
2023-01-21T12:28:52.349Z,98930.69
2023-01-21T12:31:30.380Z,98921.59
2023-01-21T12:34:14.042Z,98920.66
2023-01-21T12:37:08.536Z,98925.72
2023-01-21T12:39:39.800Z,98925.88
2023-01-21T12:42:21.978Z,98929.22
2023-01-21T12:45:16.559Z,98927.50
2023-01-21T12:47:58.009Z,98922.53
2023-01-21T12:50:49.624Z,98925.28
2023-01-21T12:53:43.351Z,98935.34
2023-01-21T12:56:35.088Z,98937.94
2023-01-21T12:59:18.279Z,98928.66
2023-01-21T13:02:19.630Z,98939.78
2023-01-21T13:05:05.636Z,98935.47
2023-01-21T13:07:53.417Z,98938.25
2023-01-21T13:10:33.772Z,98927.81
2023-01-21T13:13:24.383Z,98945.97
2023-01-21T13:15:59.017Z,98943.50
2023-01-21T13:18:37.842Z,98946.88
2023-01-21T13:21:19.516Z,98949.44
2023-01-21T13:24:16.945Z,98941.75
2023-01-21T13:26:55.439Z,98945.41
2023-01-21T13:29:53.327Z,98956.56
2023-01-21T13:33:00.988Z,98953.13
2023-01-21T13:35:36.226Z,98954.97
2023-01-21T13:38:22.977Z,98952.38
2023-01-21T13:41:33.548Z,98962.72
2023-01-21T13:44:14.434Z,98964.50
2023-01-21T13:46:47.132Z,98970.53
2023-01-21T13:49:40.478Z,98967.06
2023-01-21T13:52:13.351Z,98981.78
2023-01-21T13:55:01.930Z,98981.94
2023-01-21T13:58:20.523Z,98983.56
2023-01-21T14:01:04.510Z,98986.97
2023-01-21T14:03:48.874Z,98992.19
2023-01-21T14:06:30.878Z,98998.22
2023-01-21T14:09:13.681Z,98996.50
2023-01-21T14:12:09.042Z,99006.81
2023-01-21T14:14:57.117Z,99004.34
2023-01-21T14:18:04.591Z,98999.94
2023-01-21T14:21:05.943Z,99012.84
2023-01-21T14:23:44.741Z,99008.53
2023-01-21T14:26:32.342Z,99018.09
2023-01-21T14:29:20.052Z,99016.34
2023-01-21T14:32:14.010Z,99017.22
2023-01-21T14:35:14.983Z,99010.31
2023-01-21T14:38:25.636Z,99024.91
2023-01-21T14:41:10.628Z,99021.47
2023-01-21T14:43:41.563Z,99016.38
2023-01-21T14:46:35.336Z,99014.59
2023-01-21T14:49:10.413Z,99013.75
2023-01-21T14:51:49.440Z,99019.75
2023-01-21T14:54:29.221Z,99027.47
2023-01-21T14:57:17.303Z,99023.19
2023-01-21T14:59:48.943Z,99025.81
2023-01-21T15:02:37.116Z,99032.66
2023-01-21T15:05:22.703Z,99030.94
2023-01-21T15:08:20.012Z,99028.34
2023-01-21T15:11:09.301Z,99036.06
2023-01-21T15:13:41.436Z,99042.19
2023-01-21T15:16:34.802Z,99039.53
2023-01-21T15:19:10.383Z,99037.88
2023-01-21T15:22:20.359Z,99044.78
2023-01-21T15:25:04.219Z,99045.63
2023-01-21T15:27:34.319Z,99054.28
2023-01-21T15:30:07.016Z,99050.00
2023-01-21T15:32:39.089Z,99059.41
2023-01-21T15:35:47.342Z,99056.00
2023-01-21T15:38:18.541Z,99060.34
2023-01-21T15:40:56.516Z,99057.78
2023-01-21T15:43:58.194Z,99051.84
2023-01-21T15:46:43.002Z,99044.91
2023-01-21T15:49:37.503Z,99044.91
2023-01-21T15:52:49.208Z,99043.19
2023-01-21T15:55:47.745Z,99042.41
2023-01-21T15:58:42.925Z,99040.69
2023-01-21T16:01:35.741Z,99039.78
2023-01-21T16:04:31.955Z,99041.53
2023-01-21T16:07:20.359Z,99045.88
2023-01-21T16:10:34.298Z,99042.44
2023-01-21T16:13:51.623Z,99044.16
2023-01-21T16:16:46.155Z,99039.84
2023-01-21T16:19:29.209Z,99048.44
2023-01-21T16:22:03.070Z,99046.75
2023-01-21T16:24:39.597Z,99050.19
2023-01-21T16:27:19.798Z,99053.63
2023-01-21T16:29:49.975Z,99057.94
2023-01-21T16:32:21.615Z,99055.34
2023-01-21T16:34:52.853Z,99051.91
2023-01-21T16:37:27.777Z,99056.22
2023-01-21T16:40:12.199Z,99061.34
2023-01-21T16:42:43.220Z,99056.22
2023-01-21T16:45:23.931Z,99054.50
2023-01-21T16:47:59.965Z,99057.03
2023-01-21T16:50:32.189Z,99059.63
2023-01-21T16:53:09.200Z,99046.75
2023-01-21T16:55:49.656Z,99045.91
2023-01-21T16:58:33.565Z,99049.31
2023-01-21T17:01:17.350Z,99051.91
2023-01-21T17:03:51.067Z,99049.34
2023-01-21T17:06:26.782Z,99047.63
2023-01-21T17:09:06.368Z,99043.34
2023-01-21T17:11:38.299Z,99040.75
2023-01-21T17:14:12.266Z,99029.59
2023-01-21T17:16:43.898Z,99027.03
2023-01-21T17:19:44.527Z,99029.59
2023-01-21T17:22:20.722Z,99019.31
2023-01-21T17:25:27.184Z,99031.31
2023-01-21T17:27:58.150Z,99029.59
2023-01-21T17:30:32.972Z,99026.19
2023-01-21T17:33:05.021Z,99016.72
2023-01-21T17:35:35.544Z,99003.00
2023-01-21T17:38:07.571Z,99005.56
2023-01-21T17:41:02.227Z,99025.28
2023-01-21T17:43:34.779Z,99031.28
2023-01-21T17:46:05.482Z,99036.41
2023-01-21T17:48:46.733Z,99031.28
2023-01-21T17:51:25.192Z,99026.94
2023-01-21T17:53:57.858Z,99025.19
2023-01-21T17:56:51.448Z,99019.22
2023-01-21T17:59:38.902Z,99028.63
2023-01-21T18:02:11.789Z,99026.00
2023-01-21T18:04:43.055Z,99016.56
2023-01-21T18:07:28.752Z,99010.59
2023-01-21T18:10:04.052Z,99024.31
2023-01-21T18:12:33.781Z,99017.41
2023-01-21T18:15:03.979Z,99020.81
2023-01-21T18:17:35.118Z,99024.16
2023-01-21T18:20:05.558Z,99025.88
2023-01-21T18:22:37.163Z,99024.19
2023-01-21T18:25:08.341Z,99032.75
2023-01-21T18:27:38.207Z,99031.88
2023-01-21T18:30:20.106Z,99029.25
2023-01-21T18:32:51.024Z,99033.50
2023-01-21T18:35:28.808Z,99030.16
2023-01-21T18:37:59.022Z,99031.84
2023-01-21T18:40:29.067Z,99028.34
2023-01-21T18:42:59.379Z,99026.63
2023-01-21T18:45:30.294Z,99019.81
2023-01-21T18:48:00.113Z,99015.50
2023-01-21T18:50:31.441Z,99012.06
2023-01-21T18:53:01.216Z,99006.88
2023-01-21T18:55:31.082Z,99012.75
2023-01-21T18:58:00.786Z,99003.41
2023-01-21T19:00:32.628Z,99005.13
2023-01-21T19:03:03.061Z,99002.56
2023-01-21T19:05:37.498Z,99007.69
2023-01-21T19:08:15.901Z,99017.16
2023-01-21T19:10:45.774Z,99005.91
2023-01-21T19:13:18.017Z,99010.16
2023-01-21T19:15:50.037Z,99004.22
2023-01-21T19:18:19.738Z,99010.19
2023-01-21T19:20:49.302Z,99016.16
2023-01-21T19:23:19.871Z,99018.78
2023-01-21T19:25:58.164Z,99010.28
2023-01-21T19:28:27.926Z,99024.75
2023-01-21T19:30:59.558Z,99020.44
2023-01-21T19:33:29.321Z,99024.59
2023-01-21T19:36:06.476Z,99016.09
2023-01-21T19:38:36.225Z,99015.97
2023-01-21T19:41:06.594Z,99003.16
2023-01-21T19:43:37.856Z,99000.63
2023-01-21T19:46:13.127Z,99003.34
2023-01-21T19:48:43.143Z,99002.47
2023-01-21T19:51:12.794Z,99008.44
2023-01-21T19:53:42.710Z,98996.44
2023-01-21T19:56:18.625Z,98989.66
2023-01-21T19:58:49.712Z,99002.44
2023-01-21T20:01:19.306Z,98987.91
2023-01-21T20:03:59.779Z,98989.66
2023-01-21T20:06:35.238Z,98993.78
2023-01-21T20:09:06.168Z,98987.75
2023-01-21T20:11:36.093Z,98989.44
2023-01-21T20:14:05.841Z,98988.59
2023-01-21T20:16:35.857Z,98990.34
2023-01-21T20:19:07.689Z,99000.63
2023-01-21T20:21:54.703Z,99000.63
2023-01-21T20:24:31.394Z,99002.13
2023-01-21T20:27:01.686Z,99002.81
2023-01-21T20:29:31.142Z,98991.75
2023-01-21T20:32:00.866Z,98989.34
2023-01-21T20:34:32.684Z,98995.38
2023-01-21T20:37:02.621Z,98986.84
2023-01-21T20:39:32.264Z,98991.97
2023-01-21T20:42:01.839Z,98989.41
2023-01-21T20:44:31.510Z,98987.66
2023-01-21T20:47:02.579Z,98981.69
2023-01-21T20:49:32.279Z,98982.53
2023-01-21T20:52:01.886Z,98986.81
2023-01-21T20:54:31.498Z,98988.47
2023-01-21T20:57:01.203Z,98987.53
2023-01-21T20:59:30.615Z,98986.69
2023-01-21T21:02:00.403Z,98985.84
2023-01-21T21:04:31.188Z,98980.56
2023-01-21T21:07:00.857Z,98987.38
2023-01-21T21:09:30.434Z,98989.88
2023-01-21T21:12:02.886Z,98986.47
2023-01-21T21:14:32.479Z,98989.00
2023-01-21T21:17:01.898Z,98974.44
2023-01-21T21:19:31.556Z,98971.94
2023-01-21T21:22:01.117Z,98962.59
2023-01-21T21:24:31.166Z,98965.25
2023-01-21T21:27:01.581Z,98961.84
2023-01-21T21:29:31.707Z,98960.16
2023-01-21T21:32:03.415Z,98955.91
2023-01-21T21:34:33.228Z,98958.47
2023-01-21T21:37:03.003Z,98955.03
2023-01-21T21:39:34.278Z,98957.59
2023-01-21T21:42:22.304Z,98949.91
2023-01-21T21:44:51.841Z,98949.91
2023-01-21T21:47:39.389Z,98957.63
2023-01-21T21:50:09.502Z,98953.38
2023-01-21T21:52:39.116Z,98955.91
2023-01-21T21:55:11.632Z,98955.91
2023-01-21T21:57:42.881Z,98949.03
2023-01-21T22:00:13.904Z,98956.78
2023-01-21T22:02:43.475Z,98953.25
2023-01-21T22:05:13.720Z,98954.13
2023-01-21T22:07:43.440Z,98954.09
2023-01-21T22:10:13.576Z,98937.88
2023-01-21T22:12:43.410Z,98949.84
2023-01-21T22:15:13.253Z,98943.03
2023-01-21T22:17:42.704Z,98942.25
2023-01-21T22:20:13.186Z,98934.59
2023-01-21T22:22:42.990Z,98933.66
2023-01-21T22:25:12.834Z,98938.00
2023-01-21T22:27:42.620Z,98940.53
2023-01-21T22:30:13.438Z,98933.75
2023-01-21T22:32:43.064Z,98944.03
2023-01-21T22:35:12.583Z,98924.41
2023-01-21T22:37:42.047Z,98924.41
2023-01-21T22:40:12.305Z,98920.16
2023-01-21T22:42:41.885Z,98910.72
2023-01-21T22:45:11.693Z,98913.38
2023-01-21T22:47:41.109Z,98910.84
2023-01-21T22:50:11.480Z,98908.34
2023-01-21T22:52:42.777Z,98904.06
2023-01-21T22:55:12.534Z,98910.94
2023-01-21T22:57:42.362Z,98914.31
2023-01-21T23:00:16.869Z,98898.97
2023-01-21T23:02:46.274Z,98905.81
2023-01-21T23:05:15.753Z,98901.56
2023-01-21T23:07:45.524Z,98909.28
2023-01-21T23:10:14.905Z,98904.13
2023-01-21T23:12:44.742Z,98911.72
2023-01-21T23:15:14.234Z,98918.50
2023-01-21T23:17:43.600Z,98909.13
2023-01-21T23:20:13.565Z,98904.81
2023-01-21T23:22:43.123Z,98899.66
2023-01-21T23:25:15.447Z,98894.63
2023-01-21T23:27:45.043Z,98903.16
2023-01-21T23:30:15.717Z,98901.50
2023-01-21T23:32:45.399Z,98901.50
2023-01-21T23:35:15.107Z,98906.50
2023-01-21T23:37:44.952Z,98904.00
2023-01-21T23:40:14.749Z,98909.22
2023-01-21T23:42:44.453Z,98910.06
2023-01-21T23:45:13.988Z,98908.41
2023-01-21T23:47:43.648Z,98902.41
2023-01-21T23:50:15.580Z,98905.84
2023-01-21T23:52:45.235Z,98901.53
2023-01-21T23:55:15.915Z,98901.44
2023-01-21T23:57:45.605Z,98904.06
